JST510 YMML-YSSY
Flight info
| Callsign | JST510 |
|---|---|
| Flight time | 1h 6m |
| Altitude | 35000 |
| Route | DOSEL2/34 DOSEL Y59 RIVET |
| Aircraft | A21N/M-SDE2E3FGHIRWXY/LB1 |
Departure
| Time | 2026-05-04 09:43 |
|---|---|
| Airport | Melbourne Airport (YMML) |
Arrival
| Time | 2026-05-04 10:49 |
|---|---|
| Airport | Sydney Kingsford Smith International Airport (YSSY) |
| Time | Latitude | Longitude | Altitude | Speed | Heading |
|---|---|---|---|---|---|
| 2026-05-04 07:33 | -37.67526 | 144.84790 | 385 ft | 0 kts | 172° |
| 2026-05-04 09:17 | -37.67450 | 144.84788 | 385 ft | 0 kts | 195° |
| 2026-05-04 09:19 | -37.67447 | 144.84789 | 385 ft | 4 kts | 199° |
| 2026-05-04 09:19 | -37.67427 | 144.84805 | 386 ft | 4 kts | 250° |
| 2026-05-04 09:19 | -37.67426 | 144.84812 | 386 ft | 3 kts | 263° |
| 2026-05-04 09:27 | -37.67427 | 144.84803 | 386 ft | 2 kts | 263° |
| 2026-05-04 09:27 | -37.67429 | 144.84784 | 386 ft | 3 kts | 263° |
| 2026-05-04 09:28 | -37.67434 | 144.84752 | 385 ft | 5 kts | 260° |
| 2026-05-04 09:28 | -37.67439 | 144.84708 | 384 ft | 6 kts | 264° |
| 2026-05-04 09:28 | -37.67449 | 144.84623 | 382 ft | 12 kts | 262° |
| 2026-05-04 09:28 | -37.67466 | 144.84513 | 380 ft | 13 kts | 271° |
| 2026-05-04 09:29 | -37.67475 | 144.84392 | 376 ft | 14 kts | 261° |
| 2026-05-04 09:29 | -37.67492 | 144.84265 | 374 ft | 15 kts | 262° |
| 2026-05-04 09:29 | -37.67514 | 144.84153 | 372 ft | 12 kts | 234° |
| 2026-05-04 09:29 | -37.67594 | 144.84135 | 371 ft | 13 kts | 171° |
| 2026-05-04 09:30 | -37.67685 | 144.84153 | 367 ft | 14 kts | 171° |
| 2026-05-04 09:30 | -37.67752 | 144.84167 | 365 ft | 6 kts | 172° |
| 2026-05-04 09:30 | -37.67797 | 144.84174 | 361 ft | 0 kts | 181° |
| 2026-05-04 09:34 | -37.67838 | 144.84170 | 362 ft | 0 kts | 200° |
| 2026-05-04 09:38 | -37.67843 | 144.84168 | 359 ft | 1 kts | 202° |
| 2026-05-04 09:38 | -37.67855 | 144.84160 | 357 ft | 3 kts | 214° |
| 2026-05-04 09:38 | -37.67867 | 144.84139 | 356 ft | 4 kts | 246° |
| 2026-05-04 09:38 | -37.67872 | 144.84117 | 363 ft | 0 kts | 259° |
| 2026-05-04 09:42 | -37.67118 | 144.83827 | 395 ft | 104 kts | 352° |
| 2026-05-04 09:43 | -37.66249 | 144.83658 | 448 ft | 142 kts | 352° |
| 2026-05-04 09:43 | -37.65297 | 144.83461 | 932 ft | 141 kts | 352° |
| 2026-05-04 09:43 | -37.64307 | 144.83296 | 1431 ft | 145 kts | 350° |
| 2026-05-04 09:43 | -37.63269 | 144.83094 | 1858 ft | 159 kts | 344° |
| 2026-05-04 09:44 | -37.62103 | 144.82853 | 2357 ft | 179 kts | 345° |
| 2026-05-04 09:44 | -37.60817 | 144.82608 | 2886 ft | 194 kts | 345° |
| 2026-05-04 09:44 | -37.59405 | 144.82450 | 3407 ft | 218 kts | 355° |
| 2026-05-04 09:46 | -37.47677 | 144.89244 | 8567 ft | 283 kts | 20° |
| 2026-05-04 09:46 | -37.45890 | 144.90329 | 9394 ft | 287 kts | 20° |
| 2026-05-04 09:46 | -37.44084 | 144.91543 | 10182 ft | 298 kts | 30° |
| 2026-05-04 09:47 | -37.42547 | 144.93436 | 10572 ft | 324 kts | 49° |
| 2026-05-04 09:47 | -37.41217 | 144.95802 | 10890 ft | 346 kts | 52° |
| 2026-05-04 09:49 | -37.30763 | 145.14560 | 15506 ft | 388 kts | 51° |
| 2026-05-04 09:49 | -37.29189 | 145.17332 | 16168 ft | 391 kts | 51° |
| 2026-05-04 09:49 | -37.27601 | 145.20132 | 16815 ft | 395 kts | 51° |
| 2026-05-04 09:51 | -37.17820 | 145.37284 | 20180 ft | 411 kts | 50° |
| 2026-05-04 09:51 | -37.16144 | 145.40216 | 20685 ft | 414 kts | 50° |
| 2026-05-04 09:51 | -37.14459 | 145.43147 | 21175 ft | 416 kts | 50° |
| 2026-05-04 09:51 | -37.12759 | 145.46106 | 21669 ft | 419 kts | 50° |
| 2026-05-04 09:52 | -37.11050 | 145.49089 | 22159 ft | 422 kts | 50° |
| 2026-05-04 09:52 | -37.09325 | 145.52102 | 22660 ft | 424 kts | 50° |
| 2026-05-04 09:52 | -37.07596 | 145.55109 | 23129 ft | 427 kts | 50° |
| 2026-05-04 09:52 | -37.05851 | 145.58145 | 23596 ft | 430 kts | 50° |
| 2026-05-04 09:53 | -37.04093 | 145.61194 | 23993 ft | 433 kts | 50° |
| 2026-05-04 09:53 | -37.02322 | 145.64262 | 24389 ft | 436 kts | 49° |
| 2026-05-04 09:53 | -37.00560 | 145.67317 | 24746 ft | 439 kts | 49° |
| 2026-05-04 09:53 | -36.98745 | 145.70465 | 25135 ft | 442 kts | 49° |
| 2026-05-04 09:54 | -36.96962 | 145.73556 | 25496 ft | 445 kts | 48° |
| 2026-05-04 09:54 | -36.95143 | 145.76706 | 25859 ft | 448 kts | 47° |
| 2026-05-04 09:54 | -36.93307 | 145.79879 | 26215 ft | 450 kts | 47° |
| 2026-05-04 09:54 | -36.91469 | 145.83055 | 26613 ft | 452 kts | 46° |
| 2026-05-04 09:55 | -36.89615 | 145.86247 | 26978 ft | 454 kts | 46° |
| 2026-05-04 09:55 | -36.87751 | 145.89452 | 27289 ft | 457 kts | 45° |
| 2026-05-04 09:55 | -36.85876 | 145.92678 | 27623 ft | 460 kts | 45° |
| 2026-05-04 09:55 | -36.83997 | 145.95920 | 27969 ft | 462 kts | 45° |
| 2026-05-04 09:56 | -36.82107 | 145.99176 | 28285 ft | 465 kts | 45° |
| 2026-05-04 09:56 | -36.80199 | 146.02456 | 28590 ft | 467 kts | 45° |
| 2026-05-04 09:56 | -36.78278 | 146.05753 | 28869 ft | 470 kts | 44° |
| 2026-05-04 09:56 | -36.76378 | 146.09013 | 29227 ft | 471 kts | 44° |
| 2026-05-04 09:57 | -36.74443 | 146.12318 | 29517 ft | 472 kts | 44° |
| 2026-05-04 09:57 | -36.72499 | 146.15629 | 29863 ft | 473 kts | 44° |
| 2026-05-04 09:57 | -36.70553 | 146.18939 | 30227 ft | 473 kts | 44° |
| 2026-05-04 09:57 | -36.68607 | 146.22247 | 30531 ft | 473 kts | 44° |
| 2026-05-04 09:58 | -36.66666 | 146.25553 | 30842 ft | 473 kts | 44° |
| 2026-05-04 09:58 | -36.64721 | 146.28870 | 31118 ft | 474 kts | 44° |
| 2026-05-04 09:58 | -36.62773 | 146.32187 | 31398 ft | 473 kts | 44° |
| 2026-05-04 10:00 | -36.49124 | 146.55310 | 33180 ft | 476 kts | 44° |
| 2026-05-04 10:00 | -36.47159 | 146.58629 | 33395 ft | 477 kts | 44° |
| 2026-05-04 10:02 | -36.33331 | 146.81999 | 34742 ft | 480 kts | 45° |
| 2026-05-04 10:04 | -36.19399 | 147.05208 | 35051 ft | 479 kts | 45° |
| 2026-05-04 10:04 | -36.15432 | 147.11853 | 35041 ft | 479 kts | 45° |
| 2026-05-04 10:05 | -36.11495 | 147.18398 | 35061 ft | 476 kts | 45° |
| 2026-05-04 10:05 | -36.07535 | 147.24946 | 35046 ft | 476 kts | 44° |
| 2026-05-04 10:06 | -36.03535 | 147.31473 | 35068 ft | 476 kts | 44° |
| 2026-05-04 10:06 | -35.99550 | 147.38021 | 35079 ft | 476 kts | 44° |
| 2026-05-04 10:08 | -35.85688 | 147.60819 | 35080 ft | 474 kts | 44° |
| 2026-05-04 10:08 | -35.81699 | 147.67321 | 35092 ft | 475 kts | 44° |
| 2026-05-04 10:09 | -35.77714 | 147.73824 | 35089 ft | 475 kts | 44° |
| 2026-05-04 10:09 | -35.73732 | 147.80311 | 35094 ft | 475 kts | 44° |
| 2026-05-04 10:10 | -35.69738 | 147.86818 | 35097 ft | 476 kts | 44° |
| 2026-05-04 10:10 | -35.65739 | 147.93318 | 35069 ft | 475 kts | 43° |
| 2026-05-04 10:11 | -35.61736 | 147.99792 | 35102 ft | 477 kts | 43° |
| 2026-05-04 10:11 | -35.57730 | 148.06273 | 35102 ft | 475 kts | 43° |
| 2026-05-04 10:12 | -35.53733 | 148.12733 | 35105 ft | 475 kts | 43° |
| 2026-05-04 10:12 | -35.49721 | 148.19194 | 35081 ft | 476 kts | 43° |
| 2026-05-04 10:13 | -35.46384 | 148.24556 | 35087 ft | 477 kts | 43° |
| 2026-05-04 10:13 | -35.41688 | 148.32101 | 35108 ft | 475 kts | 43° |
| 2026-05-04 10:14 | -35.37670 | 148.38539 | 35107 ft | 475 kts | 43° |
| 2026-05-04 10:16 | -35.22234 | 148.63172 | 35103 ft | 475 kts | 43° |
| 2026-05-04 10:16 | -35.18192 | 148.69593 | 35100 ft | 476 kts | 43° |
| 2026-05-04 10:17 | -35.14144 | 148.76006 | 35100 ft | 477 kts | 43° |
| 2026-05-04 10:19 | -34.97975 | 149.01518 | 35101 ft | 476 kts | 43° |
| 2026-05-04 10:19 | -34.93918 | 149.07896 | 35093 ft | 473 kts | 43° |
| 2026-05-04 10:20 | -34.89909 | 149.14183 | 35088 ft | 465 kts | 43° |
| 2026-05-04 10:20 | -34.85888 | 149.20464 | 35111 ft | 475 kts | 43° |
| 2026-05-04 10:21 | -34.81854 | 149.26789 | 34785 ft | 471 kts | 43° |
| 2026-05-04 10:21 | -34.79842 | 149.29925 | 34373 ft | 470 kts | 42° |
| 2026-05-04 10:21 | -34.77826 | 149.33062 | 33722 ft | 471 kts | 42° |
| 2026-05-04 10:22 | -34.73877 | 149.39417 | 32280 ft | 480 kts | 49° |
| 2026-05-04 10:22 | -34.72239 | 149.42983 | 31675 ft | 483 kts | 53° |
| 2026-05-04 10:22 | -34.70692 | 149.46578 | 31273 ft | 475 kts | 54° |
| 2026-05-04 10:23 | -34.69171 | 149.50111 | 30802 ft | 470 kts | 53° |
| 2026-05-04 10:23 | -34.67649 | 149.53613 | 30289 ft | 467 kts | 53° |
| 2026-05-04 10:25 | -34.57157 | 149.77563 | 26119 ft | 447 kts | 53° |
| 2026-05-04 10:25 | -34.55719 | 149.80839 | 25596 ft | 443 kts | 53° |
| 2026-05-04 10:25 | -34.54274 | 149.84121 | 25193 ft | 440 kts | 53° |
| 2026-05-04 10:25 | -34.52826 | 149.87401 | 25092 ft | 439 kts | 53° |
| 2026-05-04 10:26 | -34.51385 | 149.90660 | 25060 ft | 438 kts | 53° |
| 2026-05-04 10:26 | -34.49946 | 149.93920 | 25069 ft | 438 kts | 53° |
| 2026-05-04 10:26 | -34.48533 | 149.97145 | 24698 ft | 430 kts | 53° |
| 2026-05-04 10:26 | -34.47132 | 150.00352 | 24057 ft | 429 kts | 53° |
| 2026-05-04 10:27 | -34.45731 | 150.03529 | 23422 ft | 427 kts | 53° |
| 2026-05-04 10:27 | -34.44325 | 150.06705 | 22758 ft | 424 kts | 53° |
| 2026-05-04 10:27 | -34.42959 | 150.09795 | 22157 ft | 420 kts | 54° |
| 2026-05-04 10:27 | -34.41576 | 150.12935 | 21600 ft | 416 kts | 54° |
| 2026-05-04 10:28 | -34.40233 | 150.15967 | 21059 ft | 411 kts | 54° |
| 2026-05-04 10:28 | -34.38884 | 150.18996 | 20488 ft | 407 kts | 54° |
| 2026-05-04 10:28 | -34.37543 | 150.21998 | 19941 ft | 403 kts | 55° |
| 2026-05-04 10:28 | -34.36213 | 150.24969 | 19416 ft | 399 kts | 55° |
| 2026-05-04 10:29 | -34.34899 | 150.27913 | 18904 ft | 395 kts | 55° |
| 2026-05-04 10:29 | -34.33602 | 150.30823 | 18372 ft | 391 kts | 55° |
| 2026-05-04 10:29 | -34.32317 | 150.33710 | 17799 ft | 388 kts | 55° |
| 2026-05-04 10:29 | -34.31038 | 150.36572 | 17242 ft | 384 kts | 55° |
| 2026-05-04 10:30 | -34.29773 | 150.39400 | 16677 ft | 381 kts | 55° |
| 2026-05-04 10:30 | -34.28517 | 150.42205 | 16132 ft | 377 kts | 55° |
| 2026-05-04 10:30 | -34.27279 | 150.44970 | 15763 ft | 369 kts | 55° |
| 2026-05-04 10:30 | -34.26079 | 150.47662 | 15424 ft | 358 kts | 56° |
| 2026-05-04 10:31 | -34.24915 | 150.50262 | 15039 ft | 353 kts | 55° |
| 2026-05-04 10:31 | -34.23744 | 150.52845 | 14537 ft | 349 kts | 55° |
| 2026-05-04 10:32 | -34.16924 | 150.67969 | 11536 ft | 334 kts | 56° |
| 2026-05-04 10:33 | -34.15815 | 150.70427 | 11172 ft | 329 kts | 56° |
| 2026-05-04 10:33 | -34.14738 | 150.72814 | 10932 ft | 318 kts | 56° |
| 2026-05-04 10:33 | -34.13704 | 150.75118 | 10577 ft | 306 kts | 56° |
| 2026-05-04 10:33 | -34.12699 | 150.77353 | 10204 ft | 298 kts | 55° |
| 2026-05-04 10:34 | -34.11718 | 150.79526 | 9794 ft | 293 kts | 55° |
| 2026-05-04 10:34 | -34.10741 | 150.81681 | 9303 ft | 291 kts | 55° |
| 2026-05-04 10:34 | -34.09778 | 150.83817 | 8849 ft | 291 kts | 55° |
| 2026-05-04 10:34 | -34.08812 | 150.85970 | 8538 ft | 291 kts | 55° |
| 2026-05-04 10:35 | -34.07849 | 150.88117 | 8264 ft | 290 kts | 55° |
| 2026-05-04 10:35 | -34.06890 | 150.90249 | 7987 ft | 289 kts | 55° |
| 2026-05-04 10:35 | -34.05943 | 150.92351 | 7700 ft | 288 kts | 55° |
| 2026-05-04 10:35 | -34.04989 | 150.94467 | 7406 ft | 286 kts | 55° |
| 2026-05-04 10:36 | -34.04040 | 150.96568 | 7130 ft | 285 kts | 55° |
| 2026-05-04 10:36 | -34.03302 | 150.98812 | 6831 ft | 293 kts | 74° |
| 2026-05-04 10:36 | -34.03401 | 151.01297 | 6529 ft | 304 kts | 104° |
| 2026-05-04 10:36 | -34.04458 | 151.03504 | 6217 ft | 308 kts | 129° |
| 2026-05-04 10:37 | -34.05942 | 151.05346 | 5996 ft | 305 kts | 134° |
| 2026-05-04 10:37 | -34.07489 | 151.07097 | 5965 ft | 304 kts | 142° |
| 2026-05-04 10:37 | -34.09345 | 151.08232 | 5719 ft | 299 kts | 166° |
| 2026-05-04 10:37 | -34.11382 | 151.08763 | 5308 ft | 299 kts | 171° |
| 2026-05-04 10:39 | -34.23432 | 151.11713 | 3453 ft | 290 kts | 169° |
| 2026-05-04 10:39 | -34.25397 | 151.12222 | 3327 ft | 288 kts | 169° |
| 2026-05-04 10:39 | -34.27364 | 151.12734 | 3186 ft | 287 kts | 169° |
| 2026-05-04 10:40 | -34.29312 | 151.13273 | 3061 ft | 287 kts | 162° |
| 2026-05-04 10:40 | -34.30998 | 151.14448 | 2971 ft | 274 kts | 135° |
| 2026-05-04 10:40 | -34.32037 | 151.16255 | 2963 ft | 252 kts | 106° |
| 2026-05-04 10:40 | -34.32205 | 151.16924 | 2963 ft | 242 kts | 96° |
| 2026-05-04 10:41 | -34.31456 | 151.21514 | 2980 ft | 215 kts | 43° |
| 2026-05-04 10:41 | -34.30287 | 151.22538 | 2990 ft | 205 kts | 17° |
| 2026-05-04 10:41 | -34.28940 | 151.23104 | 2999 ft | 205 kts | 13° |
| 2026-05-04 10:42 | -34.27582 | 151.23620 | 2999 ft | 204 kts | 13° |
| 2026-05-04 10:42 | -34.26202 | 151.24133 | 3003 ft | 205 kts | 13° |
| 2026-05-04 10:42 | -34.24836 | 151.24635 | 2998 ft | 205 kts | 13° |
| 2026-05-04 10:42 | -34.23445 | 151.24927 | 3008 ft | 201 kts | 356° |
| 2026-05-04 10:43 | -34.22084 | 151.24774 | 3012 ft | 199 kts | 348° |
| 2026-05-04 10:44 | -34.12938 | 151.22372 | 3006 ft | 176 kts | 347° |
| 2026-05-04 10:45 | -34.11778 | 151.22069 | 3018 ft | 169 kts | 347° |
| 2026-05-04 10:45 | -34.10642 | 151.21772 | 2844 ft | 167 kts | 348° |
| 2026-05-04 10:45 | -34.09505 | 151.21475 | 2641 ft | 167 kts | 348° |
| 2026-05-04 10:45 | -34.08383 | 151.21182 | 2421 ft | 166 kts | 347° |
| 2026-05-04 10:46 | -34.07253 | 151.20887 | 2194 ft | 166 kts | 349° |
| 2026-05-04 10:46 | -34.06144 | 151.20597 | 1980 ft | 167 kts | 349° |
| 2026-05-04 10:46 | -34.05033 | 151.20307 | 1756 ft | 158 kts | 350° |
| 2026-05-04 10:46 | -34.04013 | 151.20040 | 1576 ft | 144 kts | 349° |
| 2026-05-04 10:47 | -34.03096 | 151.19801 | 1392 ft | 127 kts | 351° |
| 2026-05-04 10:47 | -34.02231 | 151.19577 | 1222 ft | 127 kts | 349° |
| 2026-05-04 10:47 | -34.01361 | 151.19350 | 1045 ft | 128 kts | 350° |
| 2026-05-04 10:47 | -34.00482 | 151.19120 | 855 ft | 129 kts | 352° |
| 2026-05-04 10:49 | -33.94697 | 151.17608 | 29 ft | 74 kts | 349° |
| 2026-05-04 10:49 | -33.94362 | 151.17531 | 30 ft | 24 kts | 350° |
| 2026-05-04 10:50 | -33.94209 | 151.17491 | 30 ft | 23 kts | 343° |
| 2026-05-04 10:51 | -33.93900 | 151.17532 | 24 ft | 0 kts | 75° |
| 2026-05-04 10:54 | -33.93841 | 151.17753 | 26 ft | 0 kts | 49° |
| 2026-05-04 10:56 | -33.93544 | 151.17822 | 36 ft | 2 kts | 303° |
| 2026-05-04 10:56 | -33.93534 | 151.17804 | 36 ft | 4 kts | 297° |
| 2026-05-04 10:56 | -33.93530 | 151.17790 | 36 ft | 0 kts | 281° |
| 2026-05-04 10:57 | -33.93528 | 151.17783 | 36 ft | 0 kts | 282° |